sensor_id;sensor_type;location;lat;lon;timestamp;temperature;humidity
11112;DHT22;5609;49.466;8.468;2022-08-18T12:49:02;22.70;1.00
11112;DHT22;5609;49.466;8.468;2022-08-18T12:51:30;27.80;1.00
11112;DHT22;5609;49.466;8.468;2022-08-18T12:53:56;28.40;99.90
11112;DHT22;5609;49.466;8.468;2022-08-18T12:56:26;29.20;99.90
11112;DHT22;5609;49.466;8.468;2022-08-18T12:58:55;29.20;1.00
11112;DHT22;5609;49.466;8.468;2022-08-18T13:01:23;29.50;1.00
11112;DHT22;5609;49.466;8.468;2022-08-18T13:03:52;29.90;1.00
11112;DHT22;5609;49.466;8.468;2022-08-18T13:06:20;29.90;99.90
11112;DHT22;5609;49.466;8.468;2022-08-18T13:08:47;29.60;52.00
11112;DHT22;5609;49.466;8.468;2022-08-18T13:11:14;29.50;1.00
11112;DHT22;5609;49.466;8.468;2022-08-18T13:13:42;29.40;99.90
11112;DHT22;5609;49.466;8.468;2022-08-18T13:16:09;29.50;99.90
11112;DHT22;5609;49.466;8.468;2022-08-18T13:18:37;29.80;99.90
11112;DHT22;5609;49.466;8.468;2022-08-18T13:21:06;29.50;99.90
11112;DHT22;5609;49.466;8.468;2022-08-18T13:23:33;29.50;9.70
11112;DHT22;5609;49.466;8.468;2022-08-18T13:26:01;30.00;99.90
11112;DHT22;5609;49.466;8.468;2022-08-18T13:28:29;30.10;1.00
11112;DHT22;5609;49.466;8.468;2022-08-18T13:30:56;30.90;48.80
11112;DHT22;5609;49.466;8.468;2022-08-18T13:33:23;31.30;1.00
11112;DHT22;5609;49.466;8.468;2022-08-18T13:35:51;31.20;99.90
11112;DHT22;5609;49.466;8.468;2022-08-18T13:38:19;31.40;1.00
11112;DHT22;5609;49.466;8.468;2022-08-18T13:40:48;31.60;1.00
11112;DHT22;5609;49.466;8.468;2022-08-18T13:43:16;31.70;99.90
11112;DHT22;5609;49.466;8.468;2022-08-18T13:45:45;32.10;99.90
11112;DHT22;5609;49.466;8.468;2022-08-18T13:48:14;32.80;1.00
11112;DHT22;5609;49.466;8.468;2022-08-18T13:50:41;32.90;1.00
11112;DHT22;5609;49.466;8.468;2022-08-18T13:53:12;33.30;1.00
11112;DHT22;5609;49.466;8.468;2022-08-18T13:55:41;33.20;1.00
11112;DHT22;5609;49.466;8.468;2022-08-18T13:58:08;33.10;1.00
11112;DHT22;5609;49.466;8.468;2022-08-18T14:00:35;33.10;1.00
11112;DHT22;5609;49.466;8.468;2022-08-18T14:03:02;32.70;1.00
11112;DHT22;5609;49.466;8.468;2022-08-18T14:05:29;33.10;1.00
11112;DHT22;5609;49.466;8.468;2022-08-18T14:07:56;33.10;1.00
11112;DHT22;5609;49.466;8.468;2022-08-18T14:10:23;32.90;1.00
11112;DHT22;5609;49.466;8.468;2022-08-18T14:12:53;32.70;1.00
11112;DHT22;5609;49.466;8.468;2022-08-18T14:15:21;32.60;1.00
11112;DHT22;5609;49.466;8.468;2022-08-18T14:17:49;32.20;1.00
11112;DHT22;5609;49.466;8.468;2022-08-18T14:20:16;31.90;1.00
11112;DHT22;5609;49.466;8.468;2022-08-18T14:23:02;31.60;5.70
11112;DHT22;5609;49.466;8.468;2022-08-18T14:25:46;31.40;90.70
11112;DHT22;5609;49.466;8.468;2022-08-18T14:28:32;30.90;99.90
11112;DHT22;5609;49.466;8.468;2022-08-18T14:31:01;31.00;99.90
11112;DHT22;5609;49.466;8.468;2022-08-18T14:33:29;30.70;99.90
11112;DHT22;5609;49.466;8.468;2022-08-18T14:35:56;30.60;99.90
11112;DHT22;5609;49.466;8.468;2022-08-18T14:38:23;30.40;99.90
11112;DHT22;5609;49.466;8.468;2022-08-18T14:40:50;30.00;1.00
11112;DHT22;5609;49.466;8.468;2022-08-18T14:43:19;29.80;24.50
11112;DHT22;5609;49.466;8.468;2022-08-18T14:45:48;29.90;99.90
11112;DHT22;5609;49.466;8.468;2022-08-18T14:48:17;30.10;16.00
11112;DHT22;5609;49.466;8.468;2022-08-18T14:50:46;30.30;8.90
11112;DHT22;5609;49.466;8.468;2022-08-18T14:53:15;30.30;1.00
11112;DHT22;5609;49.466;8.468;2022-08-18T14:55:44;30.60;1.00
11112;DHT22;5609;49.466;8.468;2022-08-18T14:58:11;31.10;1.00
11112;DHT22;5609;49.466;8.468;2022-08-18T15:00:39;31.40;99.90
11112;DHT22;5609;49.466;8.468;2022-08-18T15:03:07;31.60;4.70
11112;DHT22;5609;49.466;8.468;2022-08-18T15:05:34;31.40;1.00
11112;DHT22;5609;49.466;8.468;2022-08-18T15:08:02;31.50;1.00
11112;DHT22;5609;49.466;8.468;2022-08-18T15:10:30;31.60;1.00
11112;DHT22;5609;49.466;8.468;2022-08-18T15:12:57;31.50;1.00
11112;DHT22;5609;49.466;8.468;2022-08-18T15:15:25;31.70;1.00
11112;DHT22;5609;49.466;8.468;2022-08-18T15:17:53;31.90;1.00
11112;DHT22;5609;49.466;8.468;2022-08-18T15:20:23;32.00;1.00
11112;DHT22;5609;49.466;8.468;2022-08-18T15:22:50;32.10;1.00
11112;DHT22;5609;49.466;8.468;2022-08-18T15:25:34;32.10;1.00
11112;DHT22;5609;49.466;8.468;2022-08-18T15:28:07;32.70;1.00
11112;DHT22;5609;49.466;8.468;2022-08-18T15:30:35;32.50;99.90
11112;DHT22;5609;49.466;8.468;2022-08-18T15:33:03;32.90;99.90
11112;DHT22;5609;49.466;8.468;2022-08-18T15:35:32;32.80;99.90
11112;DHT22;5609;49.466;8.468;2022-08-18T15:37:59;32.60;99.90
11112;DHT22;5609;49.466;8.468;2022-08-18T15:40:27;32.80;99.90
11112;DHT22;5609;49.466;8.468;2022-08-18T15:42:59;32.80;99.90
11112;DHT22;5609;49.466;8.468;2022-08-18T15:45:28;32.60;99.90
11112;DHT22;5609;49.466;8.468;2022-08-18T15:47:56;32.30;99.90
11112;DHT22;5609;49.466;8.468;2022-08-18T15:50:23;32.10;99.90
11112;DHT22;5609;49.466;8.468;2022-08-18T15:52:54;31.80;99.90
11112;DHT22;5609;49.466;8.468;2022-08-18T15:55:23;31.50;99.90
11112;DHT22;5609;49.466;8.468;2022-08-18T15:57:53;31.10;99.90
11112;DHT22;5609;49.466;8.468;2022-08-18T16:00:22;30.70;99.90
11112;DHT22;5609;49.466;8.468;2022-08-18T16:02:50;30.20;99.90
11112;DHT22;5609;49.466;8.468;2022-08-18T16:05:19;30.00;1.00
11112;DHT22;5609;49.466;8.468;2022-08-18T16:07:48;29.70;1.00
11112;DHT22;5609;49.466;8.468;2022-08-18T16:10:19;29.50;1.00
11112;DHT22;5609;49.466;8.468;2022-08-18T16:12:46;29.50;1.00
11112;DHT22;5609;49.466;8.468;2022-08-18T16:15:14;29.50;1.00
11112;DHT22;5609;49.466;8.468;2022-08-18T16:17:41;29.40;1.00
11112;DHT22;5609;49.466;8.468;2022-08-18T16:20:10;29.20;1.00
11112;DHT22;5609;49.466;8.468;2022-08-18T16:22:37;28.90;1.00
11112;DHT22;5609;49.466;8.468;2022-08-18T16:25:05;28.80;1.00
11112;DHT22;5609;49.466;8.468;2022-08-18T16:27:34;28.80;1.00
11112;DHT22;5609;49.466;8.468;2022-08-18T16:30:02;28.70;1.00
11112;DHT22;5609;49.466;8.468;2022-08-18T16:32:30;28.70;1.00
11112;DHT22;5609;49.466;8.468;2022-08-18T16:34:57;28.50;1.00
11112;DHT22;5609;49.466;8.468;2022-08-18T16:37:24;28.40;1.00
11112;DHT22;5609;49.466;8.468;2022-08-18T16:39:52;28.20;1.00
11112;DHT22;5609;49.466;8.468;2022-08-18T16:42:19;28.00;27.10
11112;DHT22;5609;49.466;8.468;2022-08-18T16:44:47;27.90;99.90
11112;DHT22;5609;49.466;8.468;2022-08-18T16:47:15;27.80;99.90
11112;DHT22;5609;49.466;8.468;2022-08-18T16:49:43;27.60;99.90
11112;DHT22;5609;49.466;8.468;2022-08-18T16:52:13;27.50;1.00
11112;DHT22;5609;49.466;8.468;2022-08-18T16:54:40;27.40;99.90
11112;DHT22;5609;49.466;8.468;2022-08-18T16:57:07;27.30;1.00
11112;DHT22;5609;49.466;8.468;2022-08-18T16:59:33;27.30;1.00
11112;DHT22;5609;49.466;8.468;2022-08-18T17:07:33;27.20;1.00
11112;DHT22;5609;49.466;8.468;2022-08-18T17:10:01;27.20;1.00
11112;DHT22;5609;49.466;8.468;2022-08-18T17:12:29;27.10;1.00
11112;DHT22;5609;49.466;8.468;2022-08-18T17:14:56;27.10;1.00
11112;DHT22;5609;49.466;8.468;2022-08-18T17:17:24;27.20;99.90
11112;DHT22;5609;49.466;8.468;2022-08-18T17:19:52;27.20;1.00
11112;DHT22;5609;49.466;8.468;2022-08-18T17:22:19;27.10;99.90
11112;DHT22;5609;49.466;8.468;2022-08-18T17:24:46;27.10;99.90
11112;DHT22;5609;49.466;8.468;2022-08-18T17:27:15;27.10;99.90
11112;DHT22;5609;49.466;8.468;2022-08-18T17:29:46;27.10;99.90
11112;DHT22;5609;49.466;8.468;2022-08-18T17:32:17;27.00;99.90
11112;DHT22;5609;49.466;8.468;2022-08-18T17:34:50;26.90;99.90
11112;DHT22;5609;49.466;8.468;2022-08-18T17:37:21;26.80;99.90
11112;DHT22;5609;49.466;8.468;2022-08-18T17:39:51;26.80;99.90
11112;DHT22;5609;49.466;8.468;2022-08-18T17:42:19;26.70;1.00
11112;DHT22;5609;49.466;8.468;2022-08-18T17:44:55;26.70;99.90
11112;DHT22;5609;49.466;8.468;2022-08-18T17:47:27;26.60;99.90
11112;DHT22;5609;49.466;8.468;2022-08-18T17:49:57;26.60;1.00
11112;DHT22;5609;49.466;8.468;2022-08-18T17:52:46;26.50;1.00
11112;DHT22;5609;49.466;8.468;2022-08-18T17:55:18;26.40;1.00
11112;DHT22;5609;49.466;8.468;2022-08-18T17:57:52;26.30;1.00
11112;DHT22;5609;49.466;8.468;2022-08-18T18:00:21;26.20;99.90
11112;DHT22;5609;49.466;8.468;2022-08-18T18:02:48;26.20;1.00
11112;DHT22;5609;49.466;8.468;2022-08-18T18:05:19;26.10;1.00
11112;DHT22;5609;49.466;8.468;2022-08-18T18:07:56;26.10;1.00
11112;DHT22;5609;49.466;8.468;2022-08-18T18:10:26;26.00;99.90
11112;DHT22;5609;49.466;8.468;2022-08-18T18:13:20;25.90;99.90
11112;DHT22;5609;49.466;8.468;2022-08-18T18:15:50;25.90;1.00
11112;DHT22;5609;49.466;8.468;2022-08-18T18:18:20;25.70;1.00
11112;DHT22;5609;49.466;8.468;2022-08-18T18:21:00;25.70;57.50
11112;DHT22;5609;49.466;8.468;2022-08-18T18:23:34;25.60;1.00
11112;DHT22;5609;49.466;8.468;2022-08-18T18:26:19;25.50;1.00
11112;DHT22;5609;49.466;8.468;2022-08-18T18:28:48;25.50;1.00
11112;DHT22;5609;49.466;8.468;2022-08-18T18:31:21;25.30;1.00
11112;DHT22;5609;49.466;8.468;2022-08-18T18:33:54;25.20;1.00
11112;DHT22;5609;49.466;8.468;2022-08-18T18:36:33;25.20;95.50
11112;DHT22;5609;49.466;8.468;2022-08-18T18:39:07;25.10;1.00
11112;DHT22;5609;49.466;8.468;2022-08-18T18:41:34;24.90;1.00
11112;DHT22;5609;49.466;8.468;2022-08-18T18:44:07;24.90;99.90
11112;DHT22;5609;49.466;8.468;2022-08-18T18:46:39;24.80;1.00
11112;DHT22;5609;49.466;8.468;2022-08-18T18:49:16;24.70;1.00
11112;DHT22;5609;49.466;8.468;2022-08-18T18:51:56;24.70;1.00
11112;DHT22;5609;49.466;8.468;2022-08-18T18:54:35;24.70;1.00
11112;DHT22;5609;49.466;8.468;2022-08-18T18:57:11;24.70;1.00
11112;DHT22;5609;49.466;8.468;2022-08-18T18:59:49;24.60;99.90
11112;DHT22;5609;49.466;8.468;2022-08-18T19:02:26;24.60;1.00
11112;DHT22;5609;49.466;8.468;2022-08-18T19:05:02;24.50;1.00
11112;DHT22;5609;49.466;8.468;2022-08-18T19:07:41;24.50;1.00
11112;DHT22;5609;49.466;8.468;2022-08-18T19:10:16;24.50;1.00
11112;DHT22;5609;49.466;8.468;2022-08-18T19:12:49;24.50;1.00
11112;DHT22;5609;49.466;8.468;2022-08-18T19:15:18;24.40;1.00
11112;DHT22;5609;49.466;8.468;2022-08-18T19:17:48;24.40;1.00
11112;DHT22;5609;49.466;8.468;2022-08-18T19:20:20;24.40;1.00
11112;DHT22;5609;49.466;8.468;2022-08-18T19:22:53;24.30;99.90
11112;DHT22;5609;49.466;8.468;2022-08-18T19:25:27;24.30;99.90
11112;DHT22;5609;49.466;8.468;2022-08-18T19:27:58;24.20;1.00
11112;DHT22;5609;49.466;8.468;2022-08-18T19:30:25;24.10;1.00
11112;DHT22;5609;49.466;8.468;2022-08-18T19:32:55;24.20;1.00
11112;DHT22;5609;49.466;8.468;2022-08-18T19:35:27;24.10;1.00
11112;DHT22;5609;49.466;8.468;2022-08-18T19:38:10;24.10;1.00
11112;DHT22;5609;49.466;8.468;2022-08-18T19:40:44;24.10;1.00
11112;DHT22;5609;49.466;8.468;2022-08-18T19:43:18;24.00;99.90
11112;DHT22;5609;49.466;8.468;2022-08-18T19:45:55;24.00;99.90
11112;DHT22;5609;49.466;8.468;2022-08-18T19:48:28;24.00;99.90
11112;DHT22;5609;49.466;8.468;2022-08-18T19:51:03;24.00;99.90
11112;DHT22;5609;49.466;8.468;2022-08-18T19:53:46;23.90;99.90
11112;DHT22;5609;49.466;8.468;2022-08-18T19:56:30;23.90;1.00
11112;DHT22;5609;49.466;8.468;2022-08-18T19:59:26;23.90;1.00
11112;DHT22;5609;49.466;8.468;2022-08-18T20:02:03;23.90;1.00
11112;DHT22;5609;49.466;8.468;2022-08-18T20:04:48;23.90;1.00
11112;DHT22;5609;49.466;8.468;2022-08-18T20:07:32;23.90;1.00
11112;DHT22;5609;49.466;8.468;2022-08-18T20:10:25;23.80;1.00
11112;DHT22;5609;49.466;8.468;2022-08-18T20:13:12;23.80;1.00
11112;DHT22;5609;49.466;8.468;2022-08-18T20:18:55;23.60;1.00
11112;DHT22;5609;49.466;8.468;2022-08-18T20:21:32;23.60;1.00
11112;DHT22;5609;49.466;8.468;2022-08-18T20:24:03;23.60;1.00
11112;DHT22;5609;49.466;8.468;2022-08-18T20:26:45;23.50;1.00
11112;DHT22;5609;49.466;8.468;2022-08-18T20:29:15;23.40;1.00
11112;DHT22;5609;49.466;8.468;2022-08-18T20:31:58;23.40;1.00
11112;DHT22;5609;49.466;8.468;2022-08-18T20:34:27;23.40;1.00
11112;DHT22;5609;49.466;8.468;2022-08-18T20:36:56;23.30;1.00
11112;DHT22;5609;49.466;8.468;2022-08-18T20:39:38;23.30;1.00
11112;DHT22;5609;49.466;8.468;2022-08-18T20:42:08;23.30;1.00
11112;DHT22;5609;49.466;8.468;2022-08-18T20:44:56;23.30;1.00
11112;DHT22;5609;49.466;8.468;2022-08-18T20:50:41;23.20;1.00
11112;DHT22;5609;49.466;8.468;2022-08-18T20:53:22;23.20;1.00
11112;DHT22;5609;49.466;8.468;2022-08-18T20:55:58;23.10;1.00
11112;DHT22;5609;49.466;8.468;2022-08-18T20:58:35;23.10;1.00
11112;DHT22;5609;49.466;8.468;2022-08-18T21:01:03;23.10;1.00
11112;DHT22;5609;49.466;8.468;2022-08-18T21:03:35;23.10;1.00
11112;DHT22;5609;49.466;8.468;2022-08-18T21:06:02;23.10;1.00
11112;DHT22;5609;49.466;8.468;2022-08-18T21:08:32;23.10;1.00
11112;DHT22;5609;49.466;8.468;2022-08-18T21:11:03;23.10;1.00
11112;DHT22;5609;49.466;8.468;2022-08-18T21:13:34;23.10;1.00
11112;DHT22;5609;49.466;8.468;2022-08-18T21:16:03;23.10;1.00
11112;DHT22;5609;49.466;8.468;2022-08-18T21:18:30;23.10;1.00
11112;DHT22;5609;49.466;8.468;2022-08-18T21:21:00;23.00;1.00
11112;DHT22;5609;49.466;8.468;2022-08-18T21:23:30;23.00;1.00
11112;DHT22;5609;49.466;8.468;2022-08-18T21:26:03;23.00;1.00
11112;DHT22;5609;49.466;8.468;2022-08-18T21:28:32;23.00;1.00
11112;DHT22;5609;49.466;8.468;2022-08-18T21:31:04;22.90;1.00
11112;DHT22;5609;49.466;8.468;2022-08-18T21:33:32;22.80;1.00
11112;DHT22;5609;49.466;8.468;2022-08-18T21:36:09;22.80;1.00
11112;DHT22;5609;49.466;8.468;2022-08-18T21:38:36;22.80;1.00
11112;DHT22;5609;49.466;8.468;2022-08-18T21:41:03;22.80;1.00
11112;DHT22;5609;49.466;8.468;2022-08-18T21:43:37;22.70;1.00
11112;DHT22;5609;49.466;8.468;2022-08-18T21:46:08;22.70;1.00
11112;DHT22;5609;49.466;8.468;2022-08-18T21:48:44;22.70;1.00
11112;DHT22;5609;49.466;8.468;2022-08-18T21:51:18;22.70;1.00
11112;DHT22;5609;49.466;8.468;2022-08-18T21:53:46;22.60;1.00
11112;DHT22;5609;49.466;8.468;2022-08-18T21:56:20;22.50;1.00
11112;DHT22;5609;49.466;8.468;2022-08-18T21:58:47;22.50;1.00
11112;DHT22;5609;49.466;8.468;2022-08-18T22:01:20;22.50;1.00
11112;DHT22;5609;49.466;8.468;2022-08-18T22:03:51;22.50;1.00
11112;DHT22;5609;49.466;8.468;2022-08-18T22:06:26;22.50;1.00
11112;DHT22;5609;49.466;8.468;2022-08-18T22:08:57;22.50;1.00
11112;DHT22;5609;49.466;8.468;2022-08-18T22:11:30;22.40;1.00
11112;DHT22;5609;49.466;8.468;2022-08-18T22:14:41;22.40;1.00
11112;DHT22;5609;49.466;8.468;2022-08-18T22:17:30;22.40;1.00
11112;DHT22;5609;49.466;8.468;2022-08-18T22:20:36;22.30;1.00
11112;DHT22;5609;49.466;8.468;2022-08-18T22:23:09;22.30;1.00
11112;DHT22;5609;49.466;8.468;2022-08-18T22:26:04;22.30;1.00
11112;DHT22;5609;49.466;8.468;2022-08-18T22:28:32;22.30;1.00
11112;DHT22;5609;49.466;8.468;2022-08-18T22:30:58;22.20;1.00
11112;DHT22;5609;49.466;8.468;2022-08-18T22:33:27;22.20;1.00
11112;DHT22;5609;49.466;8.468;2022-08-18T22:35:54;22.20;1.00
11112;DHT22;5609;49.466;8.468;2022-08-18T22:38:23;22.30;1.00
11112;DHT22;5609;49.466;8.468;2022-08-18T22:40:51;22.20;1.00
11112;DHT22;5609;49.466;8.468;2022-08-18T22:43:18;22.20;1.00
11112;DHT22;5609;49.466;8.468;2022-08-18T22:45:44;22.30;1.00
11112;DHT22;5609;49.466;8.468;2022-08-18T22:48:11;22.30;1.00
11112;DHT22;5609;49.466;8.468;2022-08-18T22:50:43;22.30;1.00
11112;DHT22;5609;49.466;8.468;2022-08-18T22:53:11;22.30;1.00
11112;DHT22;5609;49.466;8.468;2022-08-18T22:55:39;22.30;1.00
11112;DHT22;5609;49.466;8.468;2022-08-18T22:58:06;22.30;1.00
11112;DHT22;5609;49.466;8.468;2022-08-18T23:00:33;22.30;1.00
11112;DHT22;5609;49.466;8.468;2022-08-18T23:03:00;22.20;1.00
11112;DHT22;5609;49.466;8.468;2022-08-18T23:05:27;22.20;1.00
11112;DHT22;5609;49.466;8.468;2022-08-18T23:07:55;22.20;1.00
11112;DHT22;5609;49.466;8.468;2022-08-18T23:10:22;22.20;1.00
11112;DHT22;5609;49.466;8.468;2022-08-18T23:12:49;22.20;1.00
11112;DHT22;5609;49.466;8.468;2022-08-18T23:15:17;22.10;1.00
11112;DHT22;5609;49.466;8.468;2022-08-18T23:17:44;22.10;1.00
11112;DHT22;5609;49.466;8.468;2022-08-18T23:20:13;22.20;1.00
11112;DHT22;5609;49.466;8.468;2022-08-18T23:22:40;22.10;1.00
11112;DHT22;5609;49.466;8.468;2022-08-18T23:25:09;22.10;1.00
11112;DHT22;5609;49.466;8.468;2022-08-18T23:27:36;22.10;1.00
11112;DHT22;5609;49.466;8.468;2022-08-18T23:30:04;22.10;1.00
11112;DHT22;5609;49.466;8.468;2022-08-18T23:32:31;22.10;1.00
11112;DHT22;5609;49.466;8.468;2022-08-18T23:34:58;22.10;1.00
11112;DHT22;5609;49.466;8.468;2022-08-18T23:37:25;22.10;1.00
11112;DHT22;5609;49.466;8.468;2022-08-18T23:39:52;22.10;1.00
11112;DHT22;5609;49.466;8.468;2022-08-18T23:42:21;22.10;1.00
11112;DHT22;5609;49.466;8.468;2022-08-18T23:44:48;22.10;1.00
11112;DHT22;5609;49.466;8.468;2022-08-18T23:47:15;22.00;1.00
11112;DHT22;5609;49.466;8.468;2022-08-18T23:49:45;22.00;1.00
11112;DHT22;5609;49.466;8.468;2022-08-18T23:52:11;22.00;1.00
11112;DHT22;5609;49.466;8.468;2022-08-18T23:54:38;22.10;1.00
11112;DHT22;5609;49.466;8.468;2022-08-18T23:57:05;22.10;1.00
11112;DHT22;5609;49.466;8.468;2022-08-18T23:59:33;22.10;1.00
